Time;durP1;ratioP1;P1;durP2;ratioP2;P2;SDS_P1;SDS_P2;PMS_P1;PMS_P2;Temp;Humidity;BMP_temperature;BMP_pressure;BME280_temperature;BME280_humidity;BME280_pressure;Samples;Min_cycle;Max_cycle;Signal;HPM_P1;HPM_P2
2023/04/23 00:01:41;;;;;;;19.02;10.73;;;8.50;99.90;;;;;;5056792;28;20048;-88
2023/04/23 00:04:08;;;;;;;21.05;9.82;;;8.50;99.90;;;;;;5057307;28;20056;-86
2023/04/23 00:06:34;;;;;;;21.13;10.00;;;8.40;99.90;;;;;;5056683;28;20437;-86
2023/04/23 00:09:00;;;;;;;17.85;9.32;;;8.40;99.90;;;;;;5056500;28;20075;-85
2023/04/23 00:11:27;;;;;;;16.00;9.23;;;8.40;99.90;;;;;;5040355;28;20048;-85
2023/04/23 00:13:53;;;;;;;19.92;9.25;;;9.30;99.90;;;;;;5056252;28;20091;-85
2023/04/23 00:16:19;;;;;;;18.67;9.52;;;8.40;99.90;;;;;;5040192;28;20044;-85
2023/04/23 00:18:45;;;;;;;16.73;8.45;;;8.30;99.90;;;;;;5040047;28;20050;-86
2023/04/23 00:21:12;;;;;;;17.00;9.25;;;9.00;99.90;;;;;;5056828;28;20119;-86
2023/04/23 00:23:38;;;;;;;20.80;8.82;;;10.70;99.90;;;;;;5056075;28;20040;-87
2023/04/23 00:26:04;;;;;;;15.13;8.93;;;10.70;99.90;;;;;;5056331;28;20044;-86
2023/04/23 00:28:30;;;;;;;17.48;8.88;;;8.30;99.90;;;;;;5074070;28;20052;-86
2023/04/23 00:30:55;;;;;;;18.92;8.43;;;10.10;99.90;;;;;;5074517;28;20044;-87
2023/04/23 00:33:22;;;;;;;18.80;9.95;;;10.50;99.90;;;;;;5056786;28;20055;-87
2023/04/23 00:35:47;;;;;;;15.38;8.57;;;9.70;99.90;;;;;;5056111;28;20397;-86
2023/04/23 00:38:13;;;;;;;14.60;8.00;;;8.70;99.90;;;;;;5039796;28;20048;-86
2023/04/23 00:40:39;;;;;;;20.67;8.80;;;8.00;99.90;;;;;;5056813;28;20060;-86
2023/04/23 00:43:06;;;;;;;18.20;9.32;;;7.80;99.90;;;;;;5056938;28;20048;-86
2023/04/23 00:45:32;;;;;;;17.15;8.75;;;7.70;99.90;;;;;;5056952;28;20059;-86
2023/04/23 00:47:58;;;;;;;17.17;9.13;;;8.10;99.90;;;;;;5039752;28;20052;-86
2023/04/23 00:50:24;;;;;;;16.48;8.60;;;10.20;99.90;;;;;;5039294;28;20087;-86
2023/04/23 00:52:50;;;;;;;17.98;9.00;;;11.00;99.90;;;;;;5056557;28;20087;-87
2023/04/23 00:55:16;;;;;;;17.25;9.10;;;10.80;99.90;;;;;;5056562;28;20041;-86
2023/04/23 00:57:41;;;;;;;20.73;10.23;;;9.20;99.90;;;;;;5056509;28;20114;-87
2023/04/23 01:00:08;;;;;;;17.17;8.98;;;8.00;99.90;;;;;;5058005;28;20048;-87
2023/04/23 01:02:35;;;;;;;17.83;9.27;;;8.20;99.90;;;;;;5043060;28;20056;-88
2023/04/23 01:05:03;;;;;;;19.38;8.65;;;10.20;99.90;;;;;;5057253;28;20127;-88
2023/04/23 01:07:28;;;;;;;18.90;8.35;;;8.00;99.90;;;;;;5056772;28;20137;-88
2023/04/23 01:09:54;;;;;;;22.75;10.00;;;10.00;99.90;;;;;;5056635;28;20507;-89
2023/04/23 01:12:20;;;;;;;22.05;9.35;;;10.50;99.90;;;;;;5056626;28;20056;-87
2023/04/23 01:14:46;;;;;;;18.85;8.73;;;10.40;99.90;;;;;;5039626;28;20064;-87
2023/04/23 01:17:12;;;;;;;17.50;9.75;;;10.10;99.90;;;;;;5039386;28;20048;-87
2023/04/23 01:19:38;;;;;;;14.32;8.95;;;9.90;99.90;;;;;;5056123;28;20045;-88
2023/04/23 01:22:13;;;;;;;14.25;8.85;;;9.70;99.90;;;;;;5056060;28;20033;-88
2023/04/23 01:24:41;;;;;;;17.27;8.82;;;5.90;99.90;;;;;;5055959;28;20067;-87
2023/04/23 01:27:07;;;;;;;21.20;9.60;;;9.20;99.90;;;;;;5058926;28;20045;-87
2023/04/23 01:29:36;;;;;;;23.02;10.20;;;7.60;99.90;;;;;;5043493;28;20048;-88
2023/04/23 01:32:02;;;;;;;22.52;10.60;;;9.50;99.90;;;;;;5060153;28;20068;-87
2023/04/23 01:34:30;;;;;;;22.05;10.55;;;7.80;99.90;;;;;;5060046;28;20105;-88
2023/04/23 01:36:57;;;;;;;20.15;9.65;;;10.80;99.90;;;;;;5042897;28;20509;-88
2023/04/23 01:39:23;;;;;;;24.95;10.93;;;10.60;99.90;;;;;;5043059;28;20036;-88
2023/04/23 01:41:49;;;;;;;16.98;9.45;;;10.40;99.90;;;;;;5059412;28;20048;-89
2023/04/23 01:44:15;;;;;;;23.48;10.85;;;9.40;99.90;;;;;;5042883;28;20377;-88
2023/04/23 01:46:41;;;;;;;19.70;9.98;;;8.90;99.90;;;;;;5043281;28;20044;-88
2023/04/23 01:49:07;;;;;;;18.20;10.73;;;8.60;99.90;;;;;;5059700;28;20071;-88
2023/04/23 01:51:33;;;;;;;23.08;10.45;;;9.90;99.90;;;;;;5043378;28;20053;-88
2023/04/23 01:53:59;;;;;;;22.27;10.85;;;9.50;99.90;;;;;;5059601;28;20119;-88
2023/04/23 01:56:26;;;;;;;18.98;10.52;;;9.50;99.90;;;;;;5059723;28;20037;-88
2023/04/23 01:58:52;;;;;;;21.73;11.68;;;7.20;99.90;;;;;;5059857;28;20044;-88
2023/04/23 02:01:18;;;;;;;21.33;11.02;;;8.40;99.90;;;;;;5060483;28;20047;-88
2023/04/23 02:03:44;;;;;;;21.17;10.68;;;9.80;99.90;;;;;;5043400;28;20079;-87
2023/04/23 02:06:11;;;;;;;21.95;10.68;;;7.20;99.90;;;;;;5059271;28;20139;-87
2023/04/23 02:08:37;;;;;;;24.42;12.07;;;7.70;99.90;;;;;;5042897;28;20066;-87
2023/04/23 02:11:05;;;;;;;23.83;12.00;;;8.60;99.90;;;;;;5059445;28;20056;-88
2023/04/23 02:13:31;;;;;;;18.10;10.82;;;9.60;99.90;;;;;;5043534;28;20058;-88
2023/04/23 02:15:57;;;;;;;22.98;12.45;;;11.00;99.90;;;;;;5058979;28;20131;-87
2023/04/23 02:18:23;;;;;;;28.27;12.00;;;7.60;99.90;;;;;;5058876;28;20442;-87
2023/04/23 02:20:48;;;;;;;25.17;12.60;;;8.70;99.90;;;;;;5059112;28;20040;-88
2023/04/23 02:23:14;;;;;;;25.80;13.00;;;7.20;99.90;;;;;;5042378;28;20079;-88
2023/04/23 02:25:40;;;;;;;29.42;13.75;;;10.20;99.90;;;;;;5042654;28;20044;-87
2023/04/23 02:28:07;;;;;;;33.17;12.70;;;10.00;99.90;;;;;;5058690;28;20044;-86
2023/04/23 02:30:33;;;;;;;29.67;13.70;;;6.80;99.90;;;;;;5042382;28;20048;-86
2023/04/23 02:32:59;;;;;;;30.58;13.65;;;9.10;99.90;;;;;;5058780;28;20052;-86
2023/04/23 02:35:25;;;;;;;32.67;13.60;;;10.10;99.90;;;;;;5058526;28;20036;-86
2023/04/23 02:37:53;;;;;;;27.83;12.68;;;10.40;99.90;;;;;;5041901;28;20131;-86
2023/04/23 02:40:18;;;;;;;25.67;11.63;;;8.40;99.90;;;;;;5059018;28;20098;-87
2023/04/23 02:42:44;;;;;;;27.35;12.90;;;7.20;99.90;;;;;;5058946;28;20443;-86
2023/04/23 02:45:10;;;;;;;30.73;13.93;;;9.30;99.90;;;;;;5058574;28;20082;-87
2023/04/23 02:47:36;;;;;;;29.90;12.70;;;7.50;99.90;;;;;;5059052;28;20049;-87
2023/04/23 02:50:04;;;;;;;34.83;13.77;;;8.90;99.90;;;;;;5042378;28;20052;-87
2023/04/23 02:52:31;;;;;;;33.50;13.98;;;7.70;99.90;;;;;;5057918;28;20105;-87
2023/04/23 02:54:56;;;;;;;30.58;13.50;;;7.20;99.90;;;;;;5041691;28;20065;-87
2023/04/23 02:57:22;;;;;;;24.85;12.93;;;7.20;99.90;;;;;;5058832;28;20049;-88
2023/04/23 02:59:49;;;;;;;36.05;14.20;;;9.50;99.90;;;;;;5041734;28;20385;-88
2023/04/23 03:02:14;;;;;;;28.05;12.45;;;9.70;99.90;;;;;;5076175;28;20080;-86
2023/04/23 03:04:40;;;;;;;28.63;13.20;;;9.00;99.90;;;;;;5058222;28;20084;-86
2023/04/23 03:07:06;;;;;;;32.67;13.68;;;9.40;99.90;;;;;;5058084;28;20136;-86
2023/04/23 03:09:32;;;;;;;29.00;12.98;;;6.80;99.90;;;;;;5075684;28;20477;-86
2023/04/23 03:11:57;;;;;;;27.45;12.43;;;7.30;99.90;;;;;;5058573;28;20109;-86
2023/04/23 03:14:23;;;;;;;27.70;12.50;;;9.50;99.90;;;;;;5042118;28;20052;-86
2023/04/23 03:16:48;;;;;;;29.58;12.93;;;9.10;99.90;;;;;;5058322;28;20481;-87
2023/04/23 03:19:14;;;;;;;30.45;12.73;;;9.40;99.90;;;;;;5058660;28;20040;-87
2023/04/23 03:21:40;;;;;;;32.72;13.63;;;9.50;99.90;;;;;;5058348;28;20476;-86
2023/04/23 03:24:05;;;;;;;27.60;13.05;;;6.50;99.90;;;;;;5057106;28;20138;-86
2023/04/23 03:26:31;;;;;;;37.00;15.32;;;7.30;99.90;;;;;;5040976;28;20083;-86
2023/04/23 03:28:57;;;;;;;30.95;14.55;;;7.10;99.90;;;;;;5057272;28;20048;-85
2023/04/23 03:31:22;;;;;;;29.90;14.45;;;6.50;99.90;;;;;;5057667;28;20163;-86
2023/04/23 03:33:48;;;;;;;28.73;14.25;;;10.00;99.90;;;;;;5057568;28;20052;-86
2023/04/23 03:36:14;;;;;;;34.45;14.13;;;6.90;99.90;;;;;;5057686;28;20496;-88
2023/04/23 03:38:40;;;;;;;31.25;14.43;;;9.40;99.90;;;;;;5041440;28;20053;-88
2023/04/23 03:41:06;;;;;;;31.50;14.35;;;9.40;99.90;;;;;;5057751;28;20051;-87
2023/04/23 03:43:31;;;;;;;36.22;14.07;;;8.70;99.90;;;;;;5061377;28;20060;-88
2023/04/23 03:45:57;;;;;;;31.17;15.00;;;8.10;99.90;;;;;;5061222;28;20135;-88
2023/04/23 03:48:22;;;;;;;35.45;14.77;;;9.40;99.90;;;;;;5057008;28;20055;-88
2023/04/23 03:50:48;;;;;;;32.90;16.05;;;7.10;99.90;;;;;;5075030;28;20127;-88
2023/04/23 03:53:16;;;;;;;36.20;17.00;;;9.00;99.90;;;;;;5040869;28;20041;-87
2023/04/23 03:55:42;;;;;;;41.70;17.60;;;6.40;99.90;;;;;;5040217;28;20049;-87
2023/04/23 03:58:08;;;;;;;35.60;17.33;;;7.70;99.90;;;;;;5040446;28;20135;-87
2023/04/23 04:00:34;;;;;;;38.72;17.38;;;8.90;99.90;;;;;;5057184;28;20448;-87
2023/04/23 04:03:00;;;;;;;38.50;17.80;;;8.90;99.90;;;;;;5056699;28;20087;-87
2023/04/23 04:05:27;;;;;;;36.03;16.95;;;7.00;99.90;;;;;;5056554;28;20040;-87
2023/04/23 04:07:53;;;;;;;37.35;16.73;;;7.30;99.90;;;;;;5056648;28;20061;-88
2023/04/23 04:10:19;;;;;;;41.80;17.88;;;7.30;99.90;;;;;;5039969;28;20040;-88
2023/04/23 04:12:46;;;;;;;33.60;17.67;;;7.50;99.90;;;;;;5057672;28;20045;-93
2023/04/23 04:15:13;;;;;;;43.85;16.45;;;6.50;99.90;;;;;;5040668;28;20492;-90
2023/04/23 04:17:39;;;;;;;40.10;19.15;;;9.90;99.90;;;;;;5040178;28;20047;-90
2023/04/23 04:20:10;;;;;;;40.83;18.65;;;9.00;99.90;;;;;;5039904;28;20045;-89
2023/04/23 04:22:35;;;;;;;41.67;18.65;;;6.20;99.90;;;;;;5056484;28;20048;-86
2023/04/23 04:25:01;;;;;;;53.50;19.80;;;9.50;99.90;;;;;;5056964;28;20057;-86
2023/04/23 04:27:27;;;;;;;39.13;20.00;;;9.40;99.90;;;;;;5057252;28;20055;-88
2023/04/23 04:29:52;;;;;;;41.80;18.48;;;10.30;99.90;;;;;;5056804;28;20074;-87
2023/04/23 04:32:18;;;;;;;47.63;20.67;;;10.20;99.90;;;;;;5057623;28;20045;-88
2023/04/23 04:34:44;;;;;;;40.55;19.17;;;8.60;99.90;;;;;;5040460;28;20049;-88
2023/04/23 04:37:10;;;;;;;39.08;19.13;;;9.10;99.90;;;;;;5040044;28;20509;-87
2023/04/23 04:39:36;;;;;;;46.47;20.02;;;6.90;99.90;;;;;;5039493;28;20059;-88
2023/04/23 04:42:03;;;;;;;44.75;19.73;;;9.10;99.90;;;;;;5056967;28;20048;-90
2023/04/23 04:44:29;;;;;;;40.22;18.98;;;7.50;99.90;;;;;;5056411;28;20045;-88
2023/04/23 04:46:55;;;;;;;42.55;18.98;;;9.90;99.90;;;;;;5057250;28;20083;-89
2023/04/23 04:49:21;;;;;;;40.95;19.90;;;7.50;99.90;;;;;;5040129;28;20439;-89
2023/04/23 04:51:47;;;;;;;49.72;20.52;;;9.90;99.90;;;;;;5057022;28;20044;-89
2023/04/23 04:54:12;;;;;;;43.70;19.48;;;10.20;99.90;;;;;;5057310;28;20133;-88
2023/04/23 04:56:38;;;;;;;43.38;17.40;;;9.10;99.90;;;;;;5040596;28;20492;-89
2023/04/23 04:59:04;;;;;;;35.33;16.80;;;8.50;99.90;;;;;;5057335;28;20044;-89
2023/04/23 05:01:29;;;;;;;39.97;16.85;;;9.50;99.90;;;;;;5056867;28;20141;-88
2023/04/23 05:03:56;;;;;;;37.05;16.88;;;10.40;99.90;;;;;;5041059;28;20040;-88
2023/04/23 05:06:21;;;;;;;36.88;16.83;;;9.50;99.90;;;;;;5058841;28;20055;-89
2023/04/23 05:08:47;;;;;;;33.20;15.82;;;9.80;99.90;;;;;;5046159;28;20060;-88
2023/04/23 05:11:14;;;;;;;45.10;16.83;;;9.80;99.90;;;;;;5048237;28;20116;-90
2023/04/23 05:13:40;;;;;;;36.95;15.85;;;10.50;99.90;;;;;;5046675;28;20093;-89
2023/04/23 05:16:06;;;;;;;38.88;17.10;;;10.40;99.90;;;;;;5049567;28;20040;-89
2023/04/23 05:18:31;;;;;;;44.60;17.60;;;9.30;99.90;;;;;;5054883;28;20060;-89
2023/04/23 05:20:57;;;;;;;35.50;16.83;;;9.30;99.90;;;;;;5058200;28;20044;-86
2023/04/23 05:23:23;;;;;;;40.80;17.15;;;10.00;99.90;;;;;;5062312;28;20092;-88
2023/04/23 05:25:50;;;;;;;38.28;17.50;;;9.20;99.90;;;;;;5078518;28;20045;-86
2023/04/23 05:28:16;;;;;;;30.20;15.23;;;9.70;99.90;;;;;;5079398;28;20031;-83
2023/04/23 05:30:42;;;;;;;36.42;17.02;;;9.00;99.90;;;;;;5080016;28;20045;-89
2023/04/23 05:33:08;;;;;;;34.17;17.00;;;9.90;99.90;;;;;;5062966;28;20032;-88
2023/04/23 05:35:34;;;;;;;31.92;16.60;;;8.70;99.90;;;;;;5062762;28;20044;-88
2023/04/23 05:38:01;;;;;;;37.47;17.17;;;9.40;99.90;;;;;;5062649;28;20455;-89
2023/04/23 05:40:27;;;;;;;34.85;16.25;;;10.20;99.90;;;;;;5079531;28;20041;-89
2023/04/23 05:42:53;;;;;;;33.40;15.75;;;6.90;99.90;;;;;;5055397;28;20055;-87
2023/04/23 05:45:19;;;;;;;39.83;17.80;;;9.50;99.90;;;;;;5045172;28;20137;-86
2023/04/23 05:47:45;;;;;;;38.63;17.60;;;9.30;99.90;;;;;;5040384;28;20123;-87
2023/04/23 05:50:11;;;;;;;34.00;16.73;;;7.80;99.90;;;;;;5057428;28;20148;-87
2023/04/23 05:52:37;;;;;;;40.78;17.00;;;7.80;99.90;;;;;;5058581;28;20047;-88
2023/04/23 05:55:02;;;;;;;42.92;18.80;;;9.60;99.90;;;;;;5057828;28;20113;-86
2023/04/23 05:57:28;;;;;;;36.03;16.20;;;8.00;99.90;;;;;;5057272;28;20037;-88
2023/04/23 05:59:54;;;;;;;36.85;17.25;;;8.90;99.90;;;;;;5040415;28;20051;-87
2023/04/23 06:02:19;;;;;;;34.53;16.30;;;10.10;99.90;;;;;;5040417;28;20048;-88
2023/04/23 06:04:45;;;;;;;41.20;18.50;;;6.60;99.90;;;;;;5040312;28;20052;-88
2023/04/23 06:07:11;;;;;;;42.05;18.73;;;9.80;99.90;;;;;;5040075;28;20095;-87
2023/04/23 06:09:37;;;;;;;40.20;17.17;;;9.90;99.90;;;;;;5056452;28;20144;-86
2023/04/23 06:12:02;;;;;;;40.83;18.85;;;10.20;99.90;;;;;;5057829;28;20098;-88
2023/04/23 06:14:28;;;;;;;39.35;19.02;;;8.30;99.90;;;;;;5043242;28;20041;-86
2023/04/23 06:16:54;;;;;;;38.53;18.33;;;9.80;99.90;;;;;;5060041;28;20392;-88
2023/04/23 06:19:20;;;;;;;41.15;17.80;;;11.50;99.90;;;;;;5042915;28;20477;-86
2023/04/23 06:21:45;;;;;;;41.58;17.92;;;10.20;99.90;;;;;;5059475;28;20049;-89
2023/04/23 06:24:11;;;;;;;37.85;17.10;;;11.00;99.90;;;;;;5043523;28;20041;-88
2023/04/23 06:26:37;;;;;;;36.92;18.27;;;11.60;99.90;;;;;;5044874;28;20053;-88
2023/04/23 06:29:02;;;;;;;42.30;18.83;;;10.40;99.90;;;;;;5061320;28;20051;-91
2023/04/23 06:31:28;;;;;;;40.47;17.90;;;10.30;99.90;;;;;;5042765;28;20045;-89
2023/04/23 06:33:54;;;;;;;40.20;18.25;;;9.20;99.90;;;;;;5041907;28;20430;-89
2023/04/23 06:36:20;;;;;;;40.88;17.63;;;10.60;99.90;;;;;;5042230;28;20139;-88
2023/04/23 06:38:45;;;;;;;38.67;18.35;;;10.10;99.90;;;;;;5042362;28;20047;-88
2023/04/23 06:41:12;;;;;;;43.90;18.80;;;11.20;99.90;;;;;;5042975;28;20578;-89
2023/04/23 06:43:38;;;;;;;43.28;18.58;;;12.10;99.90;;;;;;5077130;28;20094;-89
2023/04/23 06:46:03;;;;;;;35.47;17.25;;;9.30;99.90;;;;;;5059731;28;20070;-89
2023/04/23 06:48:31;;;;;;;46.42;19.40;;;10.40;99.90;;;;;;5059347;28;20052;-87
2023/04/23 06:50:57;;;;;;;41.80;19.35;;;11.90;99.90;;;;;;5042718;28;20047;-89
2023/04/23 06:53:22;;;;;;;40.38;18.88;;;12.70;99.90;;;;;;5043146;28;20051;-89
2023/04/23 06:55:50;;;;;;;41.60;17.85;;;11.50;99.90;;;;;;5059133;28;20040;-89
2023/04/23 06:58:17;;;;;;;38.05;17.10;;;11.00;99.90;;;;;;5042744;28;20135;-91
2023/04/23 07:00:42;;;;;;;37.00;16.48;;;8.10;99.90;;;;;;5043880;28;20044;-92
2023/04/23 07:03:08;;;;;;;39.70;17.65;;;11.00;99.90;;;;;;5044178;28;20163;-89
2023/04/23 07:05:34;;;;;;;33.38;16.67;;;13.20;99.90;;;;;;5042903;28;20044;-89
2023/04/23 07:07:59;;;;;;;39.78;16.83;;;12.50;99.90;;;;;;5059188;28;20094;-88
2023/04/23 07:10:25;;;;;;;28.40;15.73;;;10.80;99.90;;;;;;5058675;28;20051;-91
2023/04/23 07:12:51;;;;;;;28.98;14.20;;;13.60;99.90;;;;;;5042535;28;20056;-89
2023/04/23 07:15:19;;;;;;;32.75;16.55;;;12.70;99.90;;;;;;5058918;28;20045;-90
2023/04/23 07:17:45;;;;;;;32.00;16.02;;;12.60;99.90;;;;;;5058667;28;20696;-92
2023/04/23 07:20:10;;;;;;;27.40;14.93;;;12.50;99.90;;;;;;5042145;28;20040;-88
2023/04/23 07:22:36;;;;;;;30.08;16.45;;;13.90;99.90;;;;;;5058428;28;20049;-87
2023/04/23 07:25:04;;;;;;;31.58;14.63;;;13.30;99.90;;;;;;5058110;28;20091;-86
2023/04/23 07:27:30;;;;;;;21.98;13.35;;;11.60;99.90;;;;;;5058302;28;20052;-87
2023/04/23 07:30:00;;;;;;;27.52;14.00;;;13.20;99.90;;;;;;5041664;28;20190;-89
2023/04/23 07:32:29;;;;;;;33.53;14.70;;;12.00;99.90;;;;;;5058968;28;20040;-92
2023/04/23 07:34:55;;;;;;;25.02;13.48;;;13.50;99.90;;;;;;5041313;28;20053;-87
2023/04/23 07:37:21;;;;;;;24.70;13.25;;;12.80;99.90;;;;;;5058210;28;20051;-92
2023/04/23 07:39:46;;;;;;;32.70;15.25;;;15.00;99.90;;;;;;5057276;28;20048;-88
2023/04/23 07:42:12;;;;;;;29.63;15.70;;;14.80;99.90;;;;;;5057786;28;20364;-89
2023/04/23 07:44:38;;;;;;;27.65;15.07;;;14.30;99.90;;;;;;5058343;28;20392;-89
2023/04/23 07:47:03;;;;;;;34.20;16.83;;;12.50;99.90;;;;;;5040842;28;20090;-86
2023/04/23 07:49:30;;;;;;;24.83;14.13;;;12.00;99.90;;;;;;5058372;28;20052;-90
2023/04/23 07:51:55;;;;;;;31.58;14.95;;;11.10;99.90;;;;;;5041342;28;20080;-89
2023/04/23 07:54:21;;;;;;;29.33;14.85;;;15.20;99.90;;;;;;5041632;28;20051;-85
2023/04/23 07:56:47;;;;;;;22.08;13.25;;;14.40;99.90;;;;;;5058183;28;20037;-89
2023/04/23 07:59:12;;;;;;;27.15;14.25;;;14.90;99.90;;;;;;5057726;28;20093;-90
2023/04/23 08:01:38;;;;;;;29.75;13.10;;;15.80;99.90;;;;;;5058573;28;20131;-84
2023/04/23 08:04:04;;;;;;;28.65;15.32;;;13.00;99.90;;;;;;5040835;28;20040;-86
2023/04/23 08:06:32;;;;;;;28.45;14.20;;;12.70;99.90;;;;;;5057961;28;20443;-88
2023/04/23 08:08:59;;;;;;;20.88;13.50;;;13.90;99.90;;;;;;5056438;28;20051;-87
2023/04/23 08:11:24;;;;;;;25.30;13.20;;;12.80;99.90;;;;;;5058205;28;20085;-88
2023/04/23 08:13:50;;;;;;;26.15;14.02;;;11.40;99.90;;;;;;5057741;28;20127;-87
2023/04/23 08:16:16;;;;;;;23.10;12.93;;;14.00;99.90;;;;;;5075386;28;20045;-87
2023/04/23 08:18:41;;;;;;;22.98;11.98;;;14.80;99.90;;;;;;5057815;28;20060;-87
2023/04/23 08:21:07;;;;;;;24.58;12.38;;;15.80;99.90;;;;;;5057460;28;20059;-85
2023/04/23 08:23:32;;;;;;;22.52;11.73;;;15.00;99.90;;;;;;5076041;28;20397;-86
2023/04/23 08:26:01;;;;;;;25.83;11.80;;;14.90;99.90;;;;;;5074273;28;20131;-88
2023/04/23 08:28:29;;;;;;;22.15;11.25;;;16.20;99.90;;;;;;5040519;28;20097;-92
2023/04/23 08:30:55;;;;;;;22.20;11.80;;;13.80;99.90;;;;;;5056981;28;20041;-89
2023/04/23 08:33:21;;;;;;;22.83;11.90;;;13.50;99.90;;;;;;5039896;28;20578;-85
2023/04/23 08:35:50;;;;;;;22.38;11.07;;;14.40;99.90;;;;;;5056073;28;20484;-86
2023/04/23 08:38:18;;;;;;;18.77;11.00;;;14.40;99.90;;;;;;5041104;28;20132;-86
2023/04/23 08:40:44;;;;;;;16.52;10.18;;;16.10;99.90;;;;;;5057242;28;20124;-88
2023/04/23 08:43:19;;;;;;;17.33;9.75;;;13.80;99.90;;;;;;5056917;28;20151;-86
2023/04/23 08:45:48;;;;;;;20.75;9.07;;;16.30;99.90;;;;;;5056311;28;20056;-86
2023/04/23 08:48:18;;;;;;;15.63;9.93;;;14.10;99.90;;;;;;5039993;28;20135;-91
2023/04/23 08:50:44;;;;;;;16.92;9.38;;;15.10;99.90;;;;;;5056024;28;20040;-87
2023/04/23 08:53:16;;;;;;;16.98;9.77;;;16.90;99.90;;;;;;5039801;28;20054;-88
2023/04/23 08:55:43;;;;;;;19.30;10.05;;;14.30;99.90;;;;;;5056522;28;20436;-86
2023/04/23 08:58:09;;;;;;;16.70;9.10;;;16.40;99.90;;;;;;5039982;28;20084;-87
2023/04/23 09:00:35;;;;;;;16.75;7.43;;;16.80;99.90;;;;;;5075875;28;20076;-90
2023/04/23 09:03:00;;;;;;;14.82;8.52;;;14.70;99.90;;;;;;5060202;28;20048;-90
2023/04/23 09:05:27;;;;;;;10.27;6.70;;;17.20;40.90;;;;;;5056176;28;20044;-89
2023/04/23 09:07:53;;;;;;;19.05;8.25;;;14.50;23.60;;;;;;5039263;28;20064;-88
2023/04/23 09:10:19;;;;;;;15.55;7.40;;;14.80;1.00;;;;;;5056104;28;20066;-88
2023/04/23 09:12:45;;;;;;;14.88;7.70;;;12.80;1.00;;;;;;5040113;28;20040;-87
2023/04/23 09:15:12;;;;;;;15.30;7.53;;;;;;;;;;5039676;28;20044;-86
2023/04/23 09:17:40;;;;;;;13.20;7.03;;;14.90;1.00;;;;;;5056333;28;20388;-86
2023/04/23 09:20:09;;;;;;;15.00;7.15;;;14.20;1.00;;;;;;5056381;28;20052;-90
2023/04/23 09:22:42;;;;;;;10.27;6.55;;;14.70;1.00;;;;;;5057067;28;20045;-87
2023/04/23 09:25:10;;;;;;;12.43;5.97;;;14.70;1.00;;;;;;5057062;28;20053;-88
2023/04/23 09:27:39;;;;;;;11.35;5.90;;;16.30;1.00;;;;;;5039861;28;20594;-87
2023/04/23 09:30:09;;;;;;;11.68;6.28;;;17.60;1.00;;;;;;5055402;28;20099;-87
2023/04/23 09:32:41;;;;;;;15.00;6.50;;;15.10;1.00;;;;;;5055584;28;20045;-87
2023/04/23 09:35:12;;;;;;;10.77;5.95;;;13.10;1.00;;;;;;5055860;28;20084;-89
2023/04/23 09:37:42;;;;;;;9.90;5.15;;;16.30;1.00;;;;;;5039471;28;20048;-86
2023/04/23 09:40:08;;;;;;;9.15;5.53;;;18.50;1.00;;;;;;5039645;28;20047;-86
2023/04/23 09:42:35;;;;;;;10.27;5.72;;;15.80;1.00;;;;;;5039437;28;20140;-90
2023/04/23 09:45:10;;;;;;;11.50;6.07;;;16.10;99.90;;;;;;5056324;28;20242;-89
2023/04/23 09:47:54;;;;;;;11.32;5.97;;;15.90;99.90;;;;;;5041427;28;20091;-88
2023/04/23 09:50:31;;;;;;;10.18;5.47;;;15.80;99.90;;;;;;5043178;28;20048;-86
2023/04/23 09:52:57;;;;;;;11.07;5.05;;;18.10;99.90;;;;;;5043112;28;20308;-86
2023/04/23 09:55:37;;;;;;;12.90;5.30;;;17.50;99.90;;;;;;5043555;28;20105;-88
2023/04/23 09:58:11;;;;;;;8.15;4.93;;;15.70;99.90;;;;;;5060291;28;20041;-90
2023/04/23 10:00:42;;;;;;;10.73;4.57;;;17.80;99.90;;;;;;5061570;28;20103;-95
2023/04/23 10:03:08;;;;;;;8.18;4.22;;;14.30;99.90;;;;;;5043491;28;20059;-90
2023/04/23 10:05:40;;;;;;;10.23;4.97;;;15.50;99.90;;;;;;5043668;28;20037;-88
2023/04/23 10:08:06;;;;;;;10.13;4.78;;;16.90;99.90;;;;;;5059946;28;20155;-90
2023/04/23 10:10:37;;;;;;;10.40;4.82;;;17.80;99.90;;;;;;5043572;28;20405;-90
2023/04/23 10:13:03;;;;;;;8.90;4.07;;;16.30;1.00;;;;;;5043358;28;20076;-86
2023/04/23 10:15:29;;;;;;;9.23;4.28;;;13.70;99.90;;;;;;5059815;28;20118;-88
2023/04/23 10:17:57;;;;;;;8.65;4.18;;;15.90;91.90;;;;;;5059397;28;20401;-88
2023/04/23 10:20:24;;;;;;;7.47;3.38;;;16.50;99.90;;;;;;5059511;28;20044;-86
2023/04/23 10:22:53;;;;;;;7.55;3.75;;;16.40;1.00;;;;;;5042817;28;20056;-89
2023/04/23 10:25:20;;;;;;;5.38;2.90;;;18.60;99.90;;;;;;5042582;28;20045;-87
2023/04/23 10:27:47;;;;;;;6.25;3.55;;;17.30;1.00;;;;;;5059693;28;20055;-87
2023/04/23 10:30:13;;;;;;;5.22;3.10;;;17.70;1.00;;;;;;5058295;28;20488;-86
2023/04/23 10:32:39;;;;;;;9.10;3.10;;;16.80;1.00;;;;;;5077876;28;20084;-87
2023/04/23 10:35:07;;;;;;;5.18;2.75;;;17.10;99.90;;;;;;5042939;28;20102;-86
2023/04/23 10:37:34;;;;;;;3.75;2.50;;;17.10;99.90;;;;;;5042796;28;20043;-87
2023/04/23 10:40:14;;;;;;;7.05;2.72;;;16.80;99.90;;;;;;5076683;28;20048;-88
2023/04/23 10:42:41;;;;;;;5.10;2.47;;;17.40;99.90;;;;;;5042809;28;20131;-90
2023/04/23 10:45:18;;;;;;;11.07;3.67;;;17.10;4.70;;;;;;5042443;28;20048;-86
2023/04/23 10:47:45;;;;;;;4.18;2.15;;;19.30;99.90;;;;;;5059120;28;20507;-88
2023/04/23 10:50:26;;;;;;;3.67;1.92;;;17.70;1.00;;;;;;5042700;28;20409;-86
2023/04/23 10:52:53;;;;;;;6.80;2.40;;;18.70;99.90;;;;;;5058641;28;20052;-85
2023/04/23 10:55:24;;;;;;;7.40;3.42;;;17.50;99.90;;;;;;5058787;28;20059;-86
2023/04/23 10:58:01;;;;;;;4.15;2.08;;;17.20;99.90;;;;;;5058487;28;20050;-86
2023/04/23 11:00:28;;;;;;;3.05;2.08;;;17.90;99.90;;;;;;5058517;28;20060;-87
2023/04/23 11:02:54;;;;;;;7.53;2.10;;;17.40;99.90;;;;;;5042326;28;20080;-85
2023/04/23 11:05:24;;;;;;;3.53;1.95;;;18.70;1.00;;;;;;5041868;28;20052;-88
2023/04/23 11:08:06;;;;;;;3.50;1.67;;;17.20;53.40;;;;;;5041585;28;20094;-86
2023/04/23 11:10:32;;;;;;;4.72;2.05;;;17.60;96.50;;;;;;5041884;28;20059;-87
2023/04/23 11:13:22;;;;;;;3.95;1.60;;;17.60;99.90;;;;;;5058497;28;20083;-86
2023/04/23 11:15:48;;;;;;;2.43;1.73;;;17.70;99.90;;;;;;5041512;28;20072;-87
2023/04/23 11:18:14;;;;;;;6.78;2.15;;;18.60;1.00;;;;;;5041340;28;20075;-87
2023/04/23 11:20:42;;;;;;;7.55;1.75;;;18.90;99.90;;;;;;5041593;28;20048;-89
2023/04/23 11:23:31;;;;;;;4.22;1.30;;;19.00;99.90;;;;;;5057943;28;20079;-89
2023/04/23 11:25:58;;;;;;;6.10;1.63;;;17.40;99.90;;;;;;5057981;28;20070;-87
2023/04/23 11:28:24;;;;;;;3.30;1.25;;;19.60;99.90;;;;;;5041670;28;20157;-86
2023/04/23 11:30:52;;;;;;;2.40;1.30;;;17.20;99.90;;;;;;5041312;28;20056;-86
2023/04/23 11:33:18;;;;;;;2.53;0.90;;;19.80;99.90;;;;;;5057881;28;20044;-89
2023/04/23 11:35:44;;;;;;;2.58;0.98;;;17.30;99.90;;;;;;5058046;28;20476;-87
2023/04/23 11:38:10;;;;;;;3.45;1.08;;;17.30;99.90;;;;;;5059846;28;20046;-87
2023/04/23 11:40:36;;;;;;;4.35;0.90;;;19.60;99.90;;;;;;5043358;28;20131;-87
2023/04/23 11:43:03;;;;;;;1.73;0.80;;;17.60;99.90;;;;;;5058176;28;20054;-88
2023/04/23 11:45:29;;;;;;;4.20;1.23;;;18.00;99.90;;;;;;5041251;28;20037;-86
2023/04/23 11:48:00;;;;;;;1.48;0.75;;;18.20;99.90;;;;;;5041936;28;20045;-87
2023/04/23 11:50:31;;;;;;;1.65;0.80;;;18.20;99.90;;;;;;5041442;28;20113;-88
2023/04/23 11:53:03;;;;;;;1.85;0.75;;;16.40;99.90;;;;;;5057528;28;20135;-86
2023/04/23 11:55:28;;;;;;;3.22;0.80;;;20.50;99.90;;;;;;5057495;28;20472;-86
2023/04/23 11:57:56;;;;;;;1.65;0.85;;;18.00;99.90;;;;;;5057438;28;20040;-87
2023/04/23 12:00:25;;;;;;;2.97;1.35;;;19.10;99.90;;;;;;5057334;28;20093;-88
2023/04/23 12:02:54;;;;;;;2.67;0.70;;;18.40;99.90;;;;;;5040810;28;20040;-87
2023/04/23 12:05:43;;;;;;;1.58;0.50;;;21.00;99.90;;;;;;5056758;28;20143;-87
2023/04/23 12:08:19;;;;;;;2.03;0.88;;;18.70;90.80;;;;;;5040268;28;20095;-90
2023/04/23 12:10:45;;;;;;;1.27;0.70;;;18.70;39.40;;;;;;5056808;28;20052;-87
2023/04/23 12:13:20;;;;;;;1.98;0.70;;;19.70;59.30;;;;;;5057161;28;20074;-85
2023/04/23 12:15:58;;;;;;;3.03;1.10;;;18.70;6.00;;;;;;5057206;28;20087;-87
2023/04/23 12:18:43;;;;;;;2.03;0.90;;;20.70;26.50;;;;;;5056391;28;20497;-87
2023/04/23 12:21:11;;;;;;;3.70;0.85;;;19.00;7.00;;;;;;5057000;28;20063;-88
2023/04/23 12:23:38;;;;;;;2.40;0.95;;;18.30;16.40;;;;;;5040210;28;20127;-87
2023/04/23 12:26:09;;;;;;;1.90;0.65;;;18.30;8.00;;;;;;5056879;28;20094;-84
2023/04/23 12:28:45;;;;;;;0.80;0.50;;;18.20;1.00;;;;;;5057085;28;20503;-90
2023/04/23 12:31:21;;;;;;;1.52;0.68;;;20.70;1.00;;;;;;5057133;28;20385;-88
2023/04/23 12:33:52;;;;;;;3.47;0.90;;;18.30;42.50;;;;;;5074871;28;20112;-88
2023/04/23 12:36:17;;;;;;;2.92;0.93;;;19.40;11.50;;;;;;5056913;28;20036;-84
2023/04/23 12:38:43;;;;;;;0.40;0.40;;;18.00;1.00;;;;;;5039918;28;20127;-87